Altair, TX (77412)

7:40 PM CST on February 06, 2016 (GMT -0600)
Winslow Hills, Alleyton | | Change Station
CLOSE
Current Station
Personal Weather Station
Location: Alleyton, TX
Elevation: 256 ft
Nearby Weather Stations

Elev 256 ft 29.71 °N, 96.39 °W | Updated 7 seconds ago

Clear
Clear
46.8 °F
Feels Like 47 °F
N
0.0
Wind Variable Wind from West
Gusts 0.0 mph

Today
High -- | Low -- °F
--% Chance of Precip.
Yesterday
High -- | Low -- °F
Precip. -- in
Pressure 30.36 in
Visibility 10.0 miles
Clouds Clear
Windchill 47 °F
Dew Point 38 °F
Humidity 70%
Rainfall 0.02 in
Snow Depth Not available.
7:12 AM 6:07 PM
Waning Crescent, 3% visible
METAR K3T5 070115Z AUTO 00000KT 10SM CLR 10/03 A3036 RMK AO2 T00990029
Pressure 30.36 in
Visibility 10.0 miles
Clouds Clear
Windchill 47 °F
Dew Point 38 °F
Humidity 70%
Rainfall 0.02 in
Snow Depth Not available.
7:12 AM 6:07 PM
Waning Crescent, 3% visible
METAR K3T5 070115Z AUTO 00000KT 10SM CLR 10/03 A3036 RMK AO2 T00990029

10-Day Weather Forecast

Almanac

Astronomy

Feb. 06, 2016 Rise Set
Actual Time
Civil Twilight
Nautical Twilight
Astronomical Twilight
Moon
Length of Visible Light
Length of Day
Tomorrow will be .
, % of the Moon is Illuminated

Today's Extremes

State Highs State Lows

Community

WunderPhotos

Upload Photos

1,891,120 photos uploaded!

WunderBlog® & News

Nearby

Air Quality

  Air Quality AQ Index Pollutant
Not available.

Snow Depth

Station Depth Elevation

Earthquake Activity

City Distance Mag. Time & Date
Minimum magnitude displayed is 2.5.

Coastal Water Temperatures

Place Temperature

Stations

Nearby Weather Stations

Station Location Temp. Windchill Dew Point Humidity Wind Precip. Elev Updated Type
                   

Watches & Warnings

There are currently no watches in effect.